sensor_id;sensor_type;location;lat;lon;timestamp;temperature;humidity
8563;DHT22;16392;52.508;13.468;2023-05-15T00:01:01;12.80;99.90
8563;DHT22;16392;52.508;13.468;2023-05-15T00:03:28;12.60;99.90
8563;DHT22;16392;52.508;13.468;2023-05-15T00:05:55;12.40;99.90
8563;DHT22;16392;52.508;13.468;2023-05-15T00:08:22;12.30;1.00
8563;DHT22;16392;52.508;13.468;2023-05-15T00:10:48;12.30;1.00
8563;DHT22;16392;52.508;13.468;2023-05-15T00:13:15;12.40;1.00
8563;DHT22;16392;52.508;13.468;2023-05-15T00:15:41;12.50;1.00
8563;DHT22;16392;52.508;13.468;2023-05-15T00:18:09;12.60;1.00
8563;DHT22;16392;52.508;13.468;2023-05-15T00:20:36;12.70;1.00
8563;DHT22;16392;52.508;13.468;2023-05-15T00:23:02;12.70;1.00
8563;DHT22;16392;52.508;13.468;2023-05-15T00:25:29;12.60;1.00
8563;DHT22;16392;52.508;13.468;2023-05-15T00:27:55;12.50;1.00
8563;DHT22;16392;52.508;13.468;2023-05-15T00:30:22;12.30;1.00
8563;DHT22;16392;52.508;13.468;2023-05-15T00:32:48;12.30;1.00
8563;DHT22;16392;52.508;13.468;2023-05-15T00:35:16;12.20;1.00
8563;DHT22;16392;52.508;13.468;2023-05-15T00:37:43;12.10;99.90
8563;DHT22;16392;52.508;13.468;2023-05-15T00:40:10;12.10;99.90
8563;DHT22;16392;52.508;13.468;2023-05-15T00:42:38;12.10;99.90
8563;DHT22;16392;52.508;13.468;2023-05-15T00:45:05;12.10;1.00
8563;DHT22;16392;52.508;13.468;2023-05-15T00:47:33;12.00;1.00
8563;DHT22;16392;52.508;13.468;2023-05-15T00:49:59;12.00;1.00
8563;DHT22;16392;52.508;13.468;2023-05-15T00:52:27;11.90;99.90
8563;DHT22;16392;52.508;13.468;2023-05-15T00:54:54;12.00;1.00
8563;DHT22;16392;52.508;13.468;2023-05-15T00:57:21;12.10;1.00
8563;DHT22;16392;52.508;13.468;2023-05-15T00:59:49;12.20;99.90
8563;DHT22;16392;52.508;13.468;2023-05-15T01:02:17;12.10;99.90
8563;DHT22;16392;52.508;13.468;2023-05-15T01:04:44;11.90;99.90
8563;DHT22;16392;52.508;13.468;2023-05-15T01:07:10;11.80;1.00
8563;DHT22;16392;52.508;13.468;2023-05-15T01:09:38;11.80;99.90
8563;DHT22;16392;52.508;13.468;2023-05-15T01:12:07;11.80;99.90
8563;DHT22;16392;52.508;13.468;2023-05-15T01:14:34;11.70;99.90
8563;DHT22;16392;52.508;13.468;2023-05-15T01:17:01;11.70;1.00
8563;DHT22;16392;52.508;13.468;2023-05-15T01:19:27;11.70;99.90
8563;DHT22;16392;52.508;13.468;2023-05-15T01:21:56;11.60;1.00
8563;DHT22;16392;52.508;13.468;2023-05-15T01:24:38;11.50;99.90
8563;DHT22;16392;52.508;13.468;2023-05-15T01:27:12;11.30;99.90
8563;DHT22;16392;52.508;13.468;2023-05-15T01:29:43;11.30;1.00
8563;DHT22;16392;52.508;13.468;2023-05-15T01:32:11;11.60;99.90
8563;DHT22;16392;52.508;13.468;2023-05-15T01:34:42;11.80;99.90
8563;DHT22;16392;52.508;13.468;2023-05-15T01:37:10;12.00;1.00
8563;DHT22;16392;52.508;13.468;2023-05-15T01:39:38;12.10;99.90
8563;DHT22;16392;52.508;13.468;2023-05-15T01:42:06;12.00;99.90
8563;DHT22;16392;52.508;13.468;2023-05-15T01:44:34;12.00;1.00
8563;DHT22;16392;52.508;13.468;2023-05-15T01:47:04;11.90;1.00
8563;DHT22;16392;52.508;13.468;2023-05-15T01:49:31;11.80;1.00
8563;DHT22;16392;52.508;13.468;2023-05-15T01:52:07;11.80;1.00
8563;DHT22;16392;52.508;13.468;2023-05-15T01:54:34;11.70;1.00
8563;DHT22;16392;52.508;13.468;2023-05-15T01:57:01;11.50;1.00
8563;DHT22;16392;52.508;13.468;2023-05-15T01:59:28;11.30;1.00
8563;DHT22;16392;52.508;13.468;2023-05-15T02:01:56;11.40;1.00
8563;DHT22;16392;52.508;13.468;2023-05-15T02:04:23;11.30;1.00
8563;DHT22;16392;52.508;13.468;2023-05-15T02:06:50;11.10;1.00
8563;DHT22;16392;52.508;13.468;2023-05-15T02:09:17;11.10;99.90
8563;DHT22;16392;52.508;13.468;2023-05-15T02:11:45;11.00;99.90
8563;DHT22;16392;52.508;13.468;2023-05-15T02:14:12;11.00;99.90
8563;DHT22;16392;52.508;13.468;2023-05-15T02:16:40;11.10;99.90
8563;DHT22;16392;52.508;13.468;2023-05-15T02:19:08;11.20;99.90
8563;DHT22;16392;52.508;13.468;2023-05-15T02:21:34;11.20;17.60
8563;DHT22;16392;52.508;13.468;2023-05-15T02:24:01;11.10;1.00
8563;DHT22;16392;52.508;13.468;2023-05-15T02:26:29;11.00;1.00
8563;DHT22;16392;52.508;13.468;2023-05-15T02:29:00;10.90;1.00
8563;DHT22;16392;52.508;13.468;2023-05-15T02:31:30;10.90;48.80
8563;DHT22;16392;52.508;13.468;2023-05-15T02:34:02;10.90;1.00
8563;DHT22;16392;52.508;13.468;2023-05-15T02:36:32;11.10;1.00
8563;DHT22;16392;52.508;13.468;2023-05-15T02:38:59;11.10;1.00
8563;DHT22;16392;52.508;13.468;2023-05-15T02:41:26;11.10;1.00
8563;DHT22;16392;52.508;13.468;2023-05-15T02:43:53;11.10;1.00
8563;DHT22;16392;52.508;13.468;2023-05-15T02:46:20;11.10;1.00
8563;DHT22;16392;52.508;13.468;2023-05-15T02:48:49;11.00;1.00
8563;DHT22;16392;52.508;13.468;2023-05-15T02:51:17;11.00;1.00
8563;DHT22;16392;52.508;13.468;2023-05-15T02:53:45;10.90;1.00
8563;DHT22;16392;52.508;13.468;2023-05-15T02:56:11;10.90;1.00
8563;DHT22;16392;52.508;13.468;2023-05-15T02:58:38;10.90;1.00
8563;DHT22;16392;52.508;13.468;2023-05-15T03:01:05;10.70;1.00
8563;DHT22;16392;52.508;13.468;2023-05-15T03:03:32;10.70;1.00
8563;DHT22;16392;52.508;13.468;2023-05-15T03:05:58;10.60;1.00
8563;DHT22;16392;52.508;13.468;2023-05-15T03:08:26;10.50;1.00
8563;DHT22;16392;52.508;13.468;2023-05-15T03:10:54;10.50;1.00
8563;DHT22;16392;52.508;13.468;2023-05-15T03:13:20;10.50;1.00
8563;DHT22;16392;52.508;13.468;2023-05-15T03:15:47;10.50;1.00
8563;DHT22;16392;52.508;13.468;2023-05-15T03:18:13;10.40;1.00
8563;DHT22;16392;52.508;13.468;2023-05-15T03:20:41;10.40;1.00
8563;DHT22;16392;52.508;13.468;2023-05-15T03:23:07;10.50;1.00
8563;DHT22;16392;52.508;13.468;2023-05-15T03:25:34;10.50;1.00
8563;DHT22;16392;52.508;13.468;2023-05-15T03:28:02;10.60;1.00
8563;DHT22;16392;52.508;13.468;2023-05-15T03:30:29;10.70;1.00
8563;DHT22;16392;52.508;13.468;2023-05-15T03:33:01;10.80;1.00
8563;DHT22;16392;52.508;13.468;2023-05-15T03:35:28;10.90;1.00
8563;DHT22;16392;52.508;13.468;2023-05-15T03:37:56;10.80;1.00
8563;DHT22;16392;52.508;13.468;2023-05-15T03:40:23;10.90;1.00
8563;DHT22;16392;52.508;13.468;2023-05-15T03:42:49;11.00;1.00
8563;DHT22;16392;52.508;13.468;2023-05-15T03:45:19;11.00;1.00
8563;DHT22;16392;52.508;13.468;2023-05-15T03:47:45;10.90;1.00
8563;DHT22;16392;52.508;13.468;2023-05-15T03:50:12;11.00;1.00
8563;DHT22;16392;52.508;13.468;2023-05-15T03:52:39;11.10;1.00
8563;DHT22;16392;52.508;13.468;2023-05-15T03:55:06;11.20;99.90
8563;DHT22;16392;52.508;13.468;2023-05-15T03:57:33;11.30;99.90
8563;DHT22;16392;52.508;13.468;2023-05-15T04:00:00;11.30;99.90
8563;DHT22;16392;52.508;13.468;2023-05-15T04:02:31;11.30;1.00
8563;DHT22;16392;52.508;13.468;2023-05-15T04:04:58;11.30;1.00
8563;DHT22;16392;52.508;13.468;2023-05-15T04:07:25;11.40;1.00
8563;DHT22;16392;52.508;13.468;2023-05-15T04:09:52;11.50;99.90
8563;DHT22;16392;52.508;13.468;2023-05-15T04:12:19;11.50;1.00
8563;DHT22;16392;52.508;13.468;2023-05-15T04:14:47;11.60;1.00
8563;DHT22;16392;52.508;13.468;2023-05-15T04:17:13;11.60;15.30
8563;DHT22;16392;52.508;13.468;2023-05-15T04:19:41;11.80;1.00
8563;DHT22;16392;52.508;13.468;2023-05-15T04:22:10;11.90;99.90
8563;DHT22;16392;52.508;13.468;2023-05-15T04:24:36;12.10;1.00
8563;DHT22;16392;52.508;13.468;2023-05-15T04:27:03;12.20;1.00
8563;DHT22;16392;52.508;13.468;2023-05-15T04:29:30;12.40;99.90
8563;DHT22;16392;52.508;13.468;2023-05-15T04:31:56;12.40;99.90
8563;DHT22;16392;52.508;13.468;2023-05-15T04:34:23;12.40;99.90
8563;DHT22;16392;52.508;13.468;2023-05-15T04:36:50;12.40;1.00
8563;DHT22;16392;52.508;13.468;2023-05-15T04:39:19;12.70;1.00
8563;DHT22;16392;52.508;13.468;2023-05-15T04:41:46;13.30;1.00
8563;DHT22;16392;52.508;13.468;2023-05-15T04:44:12;13.60;19.70
8563;DHT22;16392;52.508;13.468;2023-05-15T04:46:39;13.40;1.00
8563;DHT22;16392;52.508;13.468;2023-05-15T04:49:05;13.30;1.00
8563;DHT22;16392;52.508;13.468;2023-05-15T04:51:32;13.40;1.00
8563;DHT22;16392;52.508;13.468;2023-05-15T04:54:00;13.50;1.00
8563;DHT22;16392;52.508;13.468;2023-05-15T04:56:26;13.80;1.00
8563;DHT22;16392;52.508;13.468;2023-05-15T04:58:53;14.50;8.70
8563;DHT22;16392;52.508;13.468;2023-05-15T05:01:19;15.80;1.00
8563;DHT22;16392;52.508;13.468;2023-05-15T05:03:46;17.10;1.00
8563;DHT22;16392;52.508;13.468;2023-05-15T05:06:12;17.60;99.90
8563;DHT22;16392;52.508;13.468;2023-05-15T05:08:39;18.40;23.50
8563;DHT22;16392;52.508;13.468;2023-05-15T05:11:07;19.40;1.00
8563;DHT22;16392;52.508;13.468;2023-05-15T05:13:33;19.80;1.00
8563;DHT22;16392;52.508;13.468;2023-05-15T05:16:00;20.40;1.00
8563;DHT22;16392;52.508;13.468;2023-05-15T05:18:27;20.90;1.00
8563;DHT22;16392;52.508;13.468;2023-05-15T05:20:57;21.20;99.90
8563;DHT22;16392;52.508;13.468;2023-05-15T05:23:24;21.60;99.90
8563;DHT22;16392;52.508;13.468;2023-05-15T05:25:51;21.90;99.90
8563;DHT22;16392;52.508;13.468;2023-05-15T05:28:19;22.30;99.90
8563;DHT22;16392;52.508;13.468;2023-05-15T05:30:46;22.60;99.90
8563;DHT22;16392;52.508;13.468;2023-05-15T05:33:13;22.30;99.90
8563;DHT22;16392;52.508;13.468;2023-05-15T05:35:40;22.30;99.90
8563;DHT22;16392;52.508;13.468;2023-05-15T05:38:06;22.70;99.90
8563;DHT22;16392;52.508;13.468;2023-05-15T05:40:33;22.70;99.90
8563;DHT22;16392;52.508;13.468;2023-05-15T05:43:00;21.70;99.90
8563;DHT22;16392;52.508;13.468;2023-05-15T05:45:28;21.50;99.90
8563;DHT22;16392;52.508;13.468;2023-05-15T05:47:55;21.00;99.90
8563;DHT22;16392;52.508;13.468;2023-05-15T05:50:23;20.00;99.90
8563;DHT22;16392;52.508;13.468;2023-05-15T05:52:49;19.00;99.90
8563;DHT22;16392;52.508;13.468;2023-05-15T05:55:16;18.20;99.90
8563;DHT22;16392;52.508;13.468;2023-05-15T05:57:43;17.80;99.90
8563;DHT22;16392;52.508;13.468;2023-05-15T06:00:10;17.40;1.00
8563;DHT22;16392;52.508;13.468;2023-05-15T06:02:38;17.00;1.00
8563;DHT22;16392;52.508;13.468;2023-05-15T06:05:05;17.00;1.00
8563;DHT22;16392;52.508;13.468;2023-05-15T06:07:32;16.90;1.00
8563;DHT22;16392;52.508;13.468;2023-05-15T06:09:59;16.80;1.00
8563;DHT22;16392;52.508;13.468;2023-05-15T06:12:26;16.80;1.00
8563;DHT22;16392;52.508;13.468;2023-05-15T06:14:52;16.70;1.00
8563;DHT22;16392;52.508;13.468;2023-05-15T06:17:19;16.60;1.00
8563;DHT22;16392;52.508;13.468;2023-05-15T06:19:47;16.70;1.00
8563;DHT22;16392;52.508;13.468;2023-05-15T06:22:13;16.70;1.00
8563;DHT22;16392;52.508;13.468;2023-05-15T06:24:40;16.80;1.00
8563;DHT22;16392;52.508;13.468;2023-05-15T06:27:06;16.80;1.00
8563;DHT22;16392;52.508;13.468;2023-05-15T06:29:33;16.80;1.00
8563;DHT22;16392;52.508;13.468;2023-05-15T06:32:00;17.10;1.00
8563;DHT22;16392;52.508;13.468;2023-05-15T06:34:27;17.60;1.00
8563;DHT22;16392;52.508;13.468;2023-05-15T06:36:55;18.00;1.00
8563;DHT22;16392;52.508;13.468;2023-05-15T06:39:21;17.90;1.00
8563;DHT22;16392;52.508;13.468;2023-05-15T06:41:48;17.90;1.00
8563;DHT22;16392;52.508;13.468;2023-05-15T06:44:15;17.80;1.00
8563;DHT22;16392;52.508;13.468;2023-05-15T06:46:42;17.60;1.00
8563;DHT22;16392;52.508;13.468;2023-05-15T06:49:09;17.90;1.00
8563;DHT22;16392;52.508;13.468;2023-05-15T06:51:36;18.10;1.00
8563;DHT22;16392;52.508;13.468;2023-05-15T06:54:04;18.10;1.00
8563;DHT22;16392;52.508;13.468;2023-05-15T06:56:31;18.20;1.00
8563;DHT22;16392;52.508;13.468;2023-05-15T06:58:57;18.30;99.90
8563;DHT22;16392;52.508;13.468;2023-05-15T07:01:24;18.20;99.90
8563;DHT22;16392;52.508;13.468;2023-05-15T07:03:50;17.90;99.90
8563;DHT22;16392;52.508;13.468;2023-05-15T07:06:17;17.80;1.00
8563;DHT22;16392;52.508;13.468;2023-05-15T07:08:44;17.90;1.00
8563;DHT22;16392;52.508;13.468;2023-05-15T07:11:12;18.50;1.00
8563;DHT22;16392;52.508;13.468;2023-05-15T07:13:41;19.00;99.90
8563;DHT22;16392;52.508;13.468;2023-05-15T07:16:08;19.20;99.90
8563;DHT22;16392;52.508;13.468;2023-05-15T07:18:35;18.50;99.90
8563;DHT22;16392;52.508;13.468;2023-05-15T07:21:02;18.30;99.90
8563;DHT22;16392;52.508;13.468;2023-05-15T07:23:28;18.20;99.90
8563;DHT22;16392;52.508;13.468;2023-05-15T07:25:55;18.20;99.90
8563;DHT22;16392;52.508;13.468;2023-05-15T07:28:23;18.10;99.90
8563;DHT22;16392;52.508;13.468;2023-05-15T07:30:49;18.00;99.90
8563;DHT22;16392;52.508;13.468;2023-05-15T07:33:17;17.80;99.90
8563;DHT22;16392;52.508;13.468;2023-05-15T07:35:43;17.70;99.90
8563;DHT22;16392;52.508;13.468;2023-05-15T07:38:10;17.80;1.00
8563;DHT22;16392;52.508;13.468;2023-05-15T07:40:36;17.90;1.00
8563;DHT22;16392;52.508;13.468;2023-05-15T07:43:03;17.80;99.90
8563;DHT22;16392;52.508;13.468;2023-05-15T07:45:31;18.00;1.00
8563;DHT22;16392;52.508;13.468;2023-05-15T07:47:57;17.90;1.00
8563;DHT22;16392;52.508;13.468;2023-05-15T07:50:24;18.00;1.00
8563;DHT22;16392;52.508;13.468;2023-05-15T07:52:50;18.30;1.00
8563;DHT22;16392;52.508;13.468;2023-05-15T07:55:17;18.30;1.00
8563;DHT22;16392;52.508;13.468;2023-05-15T07:57:43;18.50;1.00
8563;DHT22;16392;52.508;13.468;2023-05-15T08:00:10;18.70;99.90
8563;DHT22;16392;52.508;13.468;2023-05-15T08:02:39;19.00;1.00
8563;DHT22;16392;52.508;13.468;2023-05-15T08:05:06;19.10;99.90
8563;DHT22;16392;52.508;13.468;2023-05-15T08:07:33;19.30;99.90
8563;DHT22;16392;52.508;13.468;2023-05-15T08:10:00;19.10;99.90
8563;DHT22;16392;52.508;13.468;2023-05-15T08:12:28;18.80;99.90
8563;DHT22;16392;52.508;13.468;2023-05-15T08:14:55;18.60;99.90
8563;DHT22;16392;52.508;13.468;2023-05-15T08:17:24;18.60;99.90
8563;DHT22;16392;52.508;13.468;2023-05-15T08:19:52;18.60;99.90
8563;DHT22;16392;52.508;13.468;2023-05-15T08:22:18;18.80;99.90
8563;DHT22;16392;52.508;13.468;2023-05-15T08:24:45;18.80;99.90
8563;DHT22;16392;52.508;13.468;2023-05-15T08:27:12;18.70;99.90
8563;DHT22;16392;52.508;13.468;2023-05-15T08:29:39;18.50;99.90
8563;DHT22;16392;52.508;13.468;2023-05-15T08:32:06;18.40;99.90
8563;DHT22;16392;52.508;13.468;2023-05-15T08:34:32;18.20;99.90
8563;DHT22;16392;52.508;13.468;2023-05-15T08:37:01;18.20;99.90
8563;DHT22;16392;52.508;13.468;2023-05-15T08:39:27;18.20;99.90
8563;DHT22;16392;52.508;13.468;2023-05-15T08:41:55;18.30;99.90
8563;DHT22;16392;52.508;13.468;2023-05-15T08:44:22;18.40;99.90
8563;DHT22;16392;52.508;13.468;2023-05-15T08:46:50;18.60;99.90
8563;DHT22;16392;52.508;13.468;2023-05-15T08:49:18;18.60;99.90
8563;DHT22;16392;52.508;13.468;2023-05-15T08:51:45;18.40;99.90
8563;DHT22;16392;52.508;13.468;2023-05-15T08:54:15;18.20;99.90
8563;DHT22;16392;52.508;13.468;2023-05-15T08:56:42;18.30;99.90
8563;DHT22;16392;52.508;13.468;2023-05-15T08:59:08;18.20;99.90
8563;DHT22;16392;52.508;13.468;2023-05-15T09:01:35;18.10;99.90
8563;DHT22;16392;52.508;13.468;2023-05-15T09:04:02;18.00;99.90
8563;DHT22;16392;52.508;13.468;2023-05-15T09:06:31;17.90;99.90
8563;DHT22;16392;52.508;13.468;2023-05-15T09:08:58;17.90;99.90
8563;DHT22;16392;52.508;13.468;2023-05-15T09:11:28;18.10;1.00
8563;DHT22;16392;52.508;13.468;2023-05-15T09:13:56;18.30;1.00
8563;DHT22;16392;52.508;13.468;2023-05-15T09:16:22;18.50;99.90
8563;DHT22;16392;52.508;13.468;2023-05-15T09:18:49;18.50;99.90
8563;DHT22;16392;52.508;13.468;2023-05-15T09:21:22;18.50;99.90
8563;DHT22;16392;52.508;13.468;2023-05-15T09:23:49;18.60;99.90
8563;DHT22;16392;52.508;13.468;2023-05-15T09:26:16;18.70;99.90
8563;DHT22;16392;52.508;13.468;2023-05-15T09:28:45;18.70;99.90
8563;DHT22;16392;52.508;13.468;2023-05-15T09:31:11;18.70;99.90
8563;DHT22;16392;52.508;13.468;2023-05-15T09:33:41;18.70;99.90
8563;DHT22;16392;52.508;13.468;2023-05-15T09:36:08;18.70;99.90
8563;DHT22;16392;52.508;13.468;2023-05-15T09:38:38;18.80;99.90
8563;DHT22;16392;52.508;13.468;2023-05-15T09:41:05;18.90;99.90
8563;DHT22;16392;52.508;13.468;2023-05-15T09:43:32;19.00;99.90
8563;DHT22;16392;52.508;13.468;2023-05-15T09:46:03;19.10;99.90
8563;DHT22;16392;52.508;13.468;2023-05-15T09:48:30;19.20;99.90
8563;DHT22;16392;52.508;13.468;2023-05-15T09:50:57;19.20;99.90
8563;DHT22;16392;52.508;13.468;2023-05-15T09:53:23;19.00;99.90
8563;DHT22;16392;52.508;13.468;2023-05-15T09:55:50;19.00;99.90
8563;DHT22;16392;52.508;13.468;2023-05-15T09:58:18;19.00;1.00
8563;DHT22;16392;52.508;13.468;2023-05-15T10:00:45;18.90;1.00
8563;DHT22;16392;52.508;13.468;2023-05-15T10:03:13;18.70;1.00
8563;DHT22;16392;52.508;13.468;2023-05-15T10:05:40;18.60;1.00
8563;DHT22;16392;52.508;13.468;2023-05-15T10:08:07;18.60;1.00
8563;DHT22;16392;52.508;13.468;2023-05-15T10:10:33;18.50;1.00
8563;DHT22;16392;52.508;13.468;2023-05-15T10:13:00;18.40;1.00
8563;DHT22;16392;52.508;13.468;2023-05-15T10:15:29;18.30;1.00
8563;DHT22;16392;52.508;13.468;2023-05-15T10:17:56;18.40;1.00
8563;DHT22;16392;52.508;13.468;2023-05-15T10:20:25;18.30;1.00
8563;DHT22;16392;52.508;13.468;2023-05-15T10:22:53;18.30;1.00
8563;DHT22;16392;52.508;13.468;2023-05-15T10:25:22;18.20;1.00
8563;DHT22;16392;52.508;13.468;2023-05-15T10:27:51;18.10;1.00
8563;DHT22;16392;52.508;13.468;2023-05-15T10:30:19;18.00;1.00
8563;DHT22;16392;52.508;13.468;2023-05-15T10:32:47;18.00;1.00
8563;DHT22;16392;52.508;13.468;2023-05-15T10:35:14;17.80;1.00
8563;DHT22;16392;52.508;13.468;2023-05-15T10:40:10;17.50;33.30
8563;DHT22;16392;52.508;13.468;2023-05-15T10:42:38;17.60;99.90
8563;DHT22;16392;52.508;13.468;2023-05-15T10:45:07;17.70;99.90
8563;DHT22;16392;52.508;13.468;2023-05-15T10:47:34;17.60;99.90
8563;DHT22;16392;52.508;13.468;2023-05-15T10:50:01;17.90;1.00
8563;DHT22;16392;52.508;13.468;2023-05-15T10:52:30;18.10;99.90
8563;DHT22;16392;52.508;13.468;2023-05-15T10:54:58;18.40;99.90
8563;DHT22;16392;52.508;13.468;2023-05-15T10:57:28;18.40;1.00
8563;DHT22;16392;52.508;13.468;2023-05-15T10:59:55;18.40;99.90
8563;DHT22;16392;52.508;13.468;2023-05-15T11:02:22;18.50;99.90
8563;DHT22;16392;52.508;13.468;2023-05-15T11:04:53;18.70;99.90
8563;DHT22;16392;52.508;13.468;2023-05-15T11:07:20;18.90;50.30
8563;DHT22;16392;52.508;13.468;2023-05-15T11:09:48;19.30;1.00
8563;DHT22;16392;52.508;13.468;2023-05-15T11:12:15;19.50;1.00
8563;DHT22;16392;52.508;13.468;2023-05-15T11:17:31;19.60;1.00
8563;DHT22;16392;52.508;13.468;2023-05-15T11:19:59;19.60;1.00
8563;DHT22;16392;52.508;13.468;2023-05-15T11:22:27;19.30;1.00
8563;DHT22;16392;52.508;13.468;2023-05-15T11:24:54;19.80;1.00
8563;DHT22;16392;52.508;13.468;2023-05-15T11:27:24;20.00;1.00
8563;DHT22;16392;52.508;13.468;2023-05-15T11:30:04;20.20;1.00
8563;DHT22;16392;52.508;13.468;2023-05-15T11:32:38;20.30;1.00
8563;DHT22;16392;52.508;13.468;2023-05-15T11:35:08;20.80;1.00
8563;DHT22;16392;52.508;13.468;2023-05-15T11:37:36;21.80;99.90
8563;DHT22;16392;52.508;13.468;2023-05-15T11:40:03;23.00;99.90
8563;DHT22;16392;52.508;13.468;2023-05-15T11:42:31;23.10;99.90
8563;DHT22;16392;52.508;13.468;2023-05-15T11:44:58;22.80;99.90
8563;DHT22;16392;52.508;13.468;2023-05-15T11:47:26;21.70;99.90
8563;DHT22;16392;52.508;13.468;2023-05-15T11:49:54;21.00;99.90
8563;DHT22;16392;52.508;13.468;2023-05-15T11:52:21;20.80;99.90
8563;DHT22;16392;52.508;13.468;2023-05-15T11:54:47;21.90;99.90
8563;DHT22;16392;52.508;13.468;2023-05-15T11:57:18;22.10;99.90
8563;DHT22;16392;52.508;13.468;2023-05-15T11:59:47;22.00;99.90
8563;DHT22;16392;52.508;13.468;2023-05-15T12:02:13;22.10;99.90
8563;DHT22;16392;52.508;13.468;2023-05-15T12:04:47;22.90;99.90
8563;DHT22;16392;52.508;13.468;2023-05-15T12:07:14;23.20;99.90
8563;DHT22;16392;52.508;13.468;2023-05-15T12:09:42;23.00;99.90
8563;DHT22;16392;52.508;13.468;2023-05-15T12:12:17;23.20;99.90
8563;DHT22;16392;52.508;13.468;2023-05-15T12:14:45;23.40;99.90
8563;DHT22;16392;52.508;13.468;2023-05-15T12:17:13;23.20;99.90
8563;DHT22;16392;52.508;13.468;2023-05-15T12:19:40;23.10;99.90
8563;DHT22;16392;52.508;13.468;2023-05-15T12:22:09;24.00;99.90
8563;DHT22;16392;52.508;13.468;2023-05-15T12:24:36;24.50;99.90
8563;DHT22;16392;52.508;13.468;2023-05-15T12:27:04;24.10;99.90
8563;DHT22;16392;52.508;13.468;2023-05-15T12:29:32;24.80;99.90
8563;DHT22;16392;52.508;13.468;2023-05-15T12:32:00;24.80;99.90
8563;DHT22;16392;52.508;13.468;2023-05-15T12:34:27;25.50;99.90
8563;DHT22;16392;52.508;13.468;2023-05-15T12:36:56;25.70;99.90
8563;DHT22;16392;52.508;13.468;2023-05-15T12:39:25;25.00;92.00
8563;DHT22;16392;52.508;13.468;2023-05-15T12:41:52;24.90;95.00
8563;DHT22;16392;52.508;13.468;2023-05-15T12:44:20;25.70;97.10
8563;DHT22;16392;52.508;13.468;2023-05-15T12:46:46;25.10;85.30
8563;DHT22;16392;52.508;13.468;2023-05-15T12:49:19;25.00;71.70
8563;DHT22;16392;52.508;13.468;2023-05-15T12:51:48;24.30;57.10
8563;DHT22;16392;52.508;13.468;2023-05-15T12:54:15;25.10;64.70
8563;DHT22;16392;52.508;13.468;2023-05-15T12:56:44;25.90;63.50
8563;DHT22;16392;52.508;13.468;2023-05-15T12:59:10;26.60;58.90
8563;DHT22;16392;52.508;13.468;2023-05-15T13:01:38;27.80;47.40
8563;DHT22;16392;52.508;13.468;2023-05-15T13:04:06;27.70;20.80
8563;DHT22;16392;52.508;13.468;2023-05-15T13:06:33;27.30;11.50
8563;DHT22;16392;52.508;13.468;2023-05-15T13:09:00;26.90;7.20
8563;DHT22;16392;52.508;13.468;2023-05-15T13:11:28;26.10;1.00
8563;DHT22;16392;52.508;13.468;2023-05-15T13:13:58;25.40;1.00
8563;DHT22;16392;52.508;13.468;2023-05-15T13:16:26;26.10;1.00
8563;DHT22;16392;52.508;13.468;2023-05-15T13:18:55;26.80;1.00
8563;DHT22;16392;52.508;13.468;2023-05-15T13:21:22;24.90;1.00
8563;DHT22;16392;52.508;13.468;2023-05-15T13:23:49;23.60;1.00
8563;DHT22;16392;52.508;13.468;2023-05-15T13:26:15;23.90;1.00
8563;DHT22;16392;52.508;13.468;2023-05-15T13:28:42;23.80;1.00
8563;DHT22;16392;52.508;13.468;2023-05-15T13:31:10;24.20;1.00
8563;DHT22;16392;52.508;13.468;2023-05-15T13:33:37;24.00;1.00
8563;DHT22;16392;52.508;13.468;2023-05-15T13:36:05;21.40;1.00
8563;DHT22;16392;52.508;13.468;2023-05-15T13:38:32;20.00;23.20
8563;DHT22;16392;52.508;13.468;2023-05-15T13:40:59;19.20;99.90
8563;DHT22;16392;52.508;13.468;2023-05-15T13:43:34;18.60;99.90
8563;DHT22;16392;52.508;13.468;2023-05-15T13:46:00;18.00;99.90
8563;DHT22;16392;52.508;13.468;2023-05-15T13:48:31;17.90;99.90
8563;DHT22;16392;52.508;13.468;2023-05-15T13:50:58;17.40;1.00
8563;DHT22;16392;52.508;13.468;2023-05-15T13:53:25;17.30;1.00
8563;DHT22;16392;52.508;13.468;2023-05-15T13:55:51;17.20;1.00
8563;DHT22;16392;52.508;13.468;2023-05-15T13:58:18;16.90;1.80
8563;DHT22;16392;52.508;13.468;2023-05-15T14:00:46;16.50;99.90
8563;DHT22;16392;52.508;13.468;2023-05-15T14:03:15;16.30;1.00
8563;DHT22;16392;52.508;13.468;2023-05-15T14:05:48;16.10;1.00
8563;DHT22;16392;52.508;13.468;2023-05-15T14:08:15;16.00;99.90
8563;DHT22;16392;52.508;13.468;2023-05-15T14:10:42;15.90;1.00
8563;DHT22;16392;52.508;13.468;2023-05-15T14:13:14;15.80;1.00
8563;DHT22;16392;52.508;13.468;2023-05-15T14:15:41;15.80;98.90
8563;DHT22;16392;52.508;13.468;2023-05-15T14:18:08;15.80;1.00
8563;DHT22;16392;52.508;13.468;2023-05-15T14:20:35;15.60;99.90
8563;DHT22;16392;52.508;13.468;2023-05-15T14:23:12;15.60;1.00
8563;DHT22;16392;52.508;13.468;2023-05-15T14:25:39;15.60;99.90
8563;DHT22;16392;52.508;13.468;2023-05-15T14:28:06;15.70;99.90
8563;DHT22;16392;52.508;13.468;2023-05-15T14:30:33;15.70;1.00
8563;DHT22;16392;52.508;13.468;2023-05-15T14:33:00;15.70;99.90
8563;DHT22;16392;52.508;13.468;2023-05-15T14:35:38;15.60;1.00
8563;DHT22;16392;52.508;13.468;2023-05-15T14:38:05;15.70;1.00
8563;DHT22;16392;52.508;13.468;2023-05-15T14:40:34;15.60;99.90
8563;DHT22;16392;52.508;13.468;2023-05-15T14:43:04;15.70;1.00
8563;DHT22;16392;52.508;13.468;2023-05-15T14:45:31;15.80;1.00
8563;DHT22;16392;52.508;13.468;2023-05-15T14:47:58;16.00;1.00
8563;DHT22;16392;52.508;13.468;2023-05-15T14:50:26;16.10;1.00
8563;DHT22;16392;52.508;13.468;2023-05-15T14:52:52;16.30;99.90
8563;DHT22;16392;52.508;13.468;2023-05-15T14:55:20;16.40;1.00
8563;DHT22;16392;52.508;13.468;2023-05-15T14:57:49;16.50;99.90
8563;DHT22;16392;52.508;13.468;2023-05-15T15:00:19;16.90;1.00
8563;DHT22;16392;52.508;13.468;2023-05-15T15:02:46;16.90;1.00
8563;DHT22;16392;52.508;13.468;2023-05-15T15:05:20;16.80;1.00
8563;DHT22;16392;52.508;13.468;2023-05-15T15:07:56;16.80;1.00
8563;DHT22;16392;52.508;13.468;2023-05-15T15:10:24;16.60;99.90
8563;DHT22;16392;52.508;13.468;2023-05-15T15:12:52;16.70;99.90
8563;DHT22;16392;52.508;13.468;2023-05-15T15:15:20;16.70;1.00
8563;DHT22;16392;52.508;13.468;2023-05-15T15:20:15;16.20;1.00
8563;DHT22;16392;52.508;13.468;2023-05-15T15:22:41;16.20;99.90
8563;DHT22;16392;52.508;13.468;2023-05-15T15:25:08;16.30;1.00
8563;DHT22;16392;52.508;13.468;2023-05-15T15:27:35;16.50;99.90
8563;DHT22;16392;52.508;13.468;2023-05-15T15:30:04;16.50;1.00
8563;DHT22;16392;52.508;13.468;2023-05-15T15:32:32;16.60;1.00
8563;DHT22;16392;52.508;13.468;2023-05-15T15:35:00;16.80;1.00
8563;DHT22;16392;52.508;13.468;2023-05-15T15:37:28;17.20;99.90
8563;DHT22;16392;52.508;13.468;2023-05-15T15:39:55;17.30;99.90
8563;DHT22;16392;52.508;13.468;2023-05-15T15:42:22;17.30;1.00
8563;DHT22;16392;52.508;13.468;2023-05-15T15:44:49;17.30;1.00
8563;DHT22;16392;52.508;13.468;2023-05-15T15:47:17;17.10;1.00
8563;DHT22;16392;52.508;13.468;2023-05-15T15:49:44;17.40;1.00